createdAt,value
2017-06-04T19:36:18.602Z,24.80
2017-06-04T19:38:46.210Z,24.90
2017-06-04T19:41:20.201Z,25.00
2017-06-04T19:43:47.794Z,25.00
2017-06-04T20:23:21.237Z,25.30
2017-06-04T20:27:34.209Z,25.60
2017-06-04T20:30:01.734Z,25.80
2017-06-04T20:32:29.254Z,25.80
2017-06-04T20:37:16.384Z,25.80
2017-06-04T20:39:48.218Z,25.80
2017-06-04T20:42:21.385Z,25.70
2017-06-04T20:44:48.926Z,25.50
2017-06-04T20:47:16.446Z,25.50
2017-06-04T20:49:43.997Z,25.50
2017-06-04T20:52:17.483Z,25.40
2017-06-04T20:54:45.030Z,25.30
2017-06-04T20:57:12.549Z,25.60
2017-06-04T20:59:40.091Z,25.70
2017-06-04T21:02:13.658Z,25.80
2017-06-04T21:04:41.293Z,26.10
2017-06-04T21:07:08.910Z,26.30
2017-06-04T21:09:36.516Z,26.30
2017-06-04T21:12:09.908Z,26.40
2017-06-04T21:14:37.444Z,26.50
2017-06-04T21:17:04.985Z,26.50
2017-06-04T21:19:32.538Z,26.60
2017-06-04T21:22:06.317Z,26.70
2017-06-04T21:24:33.899Z,26.70
2017-06-04T21:27:01.463Z,26.70
2017-06-04T21:29:29.111Z,26.80
2017-06-04T21:32:02.481Z,26.70
2017-06-04T21:34:30.023Z,26.80
2017-06-04T21:36:57.555Z,26.70
2017-06-04T21:39:25.104Z,26.80
2017-06-04T21:41:57.021Z,26.80
2017-06-04T21:44:24.590Z,26.80
2017-06-04T21:46:52.142Z,26.90
2017-06-04T21:49:19.724Z,26.90
2017-06-04T21:51:53.866Z,26.90
2017-06-04T21:54:21.394Z,26.90
2017-06-04T21:56:48.942Z,26.80
2017-06-04T21:59:16.479Z,26.80
2017-06-04T22:01:49.786Z,26.80
2017-06-04T22:04:17.302Z,26.80
2017-06-04T22:06:44.849Z,26.90
2017-06-04T22:09:12.372Z,26.90
2017-06-04T22:11:45.855Z,26.90
2017-06-04T22:14:13.373Z,26.90
2017-06-04T22:16:40.934Z,26.90
2017-06-04T22:19:08.455Z,26.90
2017-06-04T22:21:42.357Z,26.90
2017-06-04T22:24:09.894Z,26.90
2017-06-04T22:26:37.471Z,26.90
2017-06-04T22:29:05.075Z,26.90
2017-06-04T22:31:38.642Z,26.90
2017-06-04T22:34:06.189Z,26.90
2017-06-04T22:36:33.805Z,27.00
2017-06-04T22:39:01.418Z,26.80
2017-06-04T22:41:34.925Z,26.90
2017-06-04T22:44:02.470Z,26.80
2017-06-04T22:46:30.005Z,26.70
2017-06-04T22:48:57.550Z,26.70
2017-06-04T22:51:31.106Z,26.70
2017-06-04T22:53:58.653Z,26.60
2017-06-04T22:56:49.567Z,26.70
2017-06-04T22:59:23.366Z,26.70
2017-06-04T23:01:57.203Z,26.60
2017-06-04T23:04:26.370Z,26.60
2017-06-04T23:07:06.662Z,26.50
2017-06-04T23:09:49.353Z,26.50
2017-06-04T23:12:20.629Z,26.50
2017-06-04T23:14:48.170Z,26.50
2017-06-04T23:17:16.462Z,26.50
2017-06-04T23:19:45.055Z,26.50
2017-06-04T23:22:18.358Z,26.50
2017-06-04T23:24:45.992Z,26.50
2017-06-04T23:27:13.639Z,26.40
2017-06-04T23:29:41.235Z,26.40
2017-06-04T23:32:14.424Z,26.30
2017-06-04T23:34:41.969Z,26.40
2017-06-04T23:37:09.497Z,26.30
2017-06-04T23:39:37.037Z,26.30
2017-06-04T23:42:08.774Z,26.30
2017-06-04T23:44:36.327Z,26.30
2017-06-04T23:47:04.618Z,26.30
2017-06-04T23:49:38.614Z,26.30
2017-06-04T23:52:12.062Z,26.30
2017-06-04T23:54:39.659Z,26.20
2017-06-04T23:57:08.024Z,26.30
2017-06-04T23:59:35.615Z,26.30
